sensor_id;sensor_type;location;lat;lon;timestamp;temperature;humidity
3300;DHT22;1662;49.310;8.134;2022-12-11T00:01:49;-0.50;99.90
3300;DHT22;1662;49.310;8.134;2022-12-11T00:04:17;-0.50;99.90
3300;DHT22;1662;49.310;8.134;2022-12-11T00:06:42;-0.60;99.90
3300;DHT22;1662;49.310;8.134;2022-12-11T00:09:08;-0.50;99.90
3300;DHT22;1662;49.310;8.134;2022-12-11T00:11:34;-0.60;99.90
3300;DHT22;1662;49.310;8.134;2022-12-11T00:13:59;-0.60;99.90
3300;DHT22;1662;49.310;8.134;2022-12-11T00:16:25;-0.50;99.90
3300;DHT22;1662;49.310;8.134;2022-12-11T00:21:23;-0.60;99.90
3300;DHT22;1662;49.310;8.134;2022-12-11T00:23:48;-0.50;99.90
3300;DHT22;1662;49.310;8.134;2022-12-11T00:26:14;-0.50;99.90
3300;DHT22;1662;49.310;8.134;2022-12-11T00:28:41;-0.60;99.90
3300;DHT22;1662;49.310;8.134;2022-12-11T00:31:10;-0.50;99.90
3300;DHT22;1662;49.310;8.134;2022-12-11T00:33:36;-0.50;99.90
3300;DHT22;1662;49.310;8.134;2022-12-11T00:36:02;-0.50;99.90
3300;DHT22;1662;49.310;8.134;2022-12-11T00:40:19;-0.60;99.90
3300;DHT22;1662;49.310;8.134;2022-12-11T00:42:45;-0.50;99.90
3300;DHT22;1662;49.310;8.134;2022-12-11T00:45:11;-0.60;99.90
3300;DHT22;1662;49.310;8.134;2022-12-11T00:47:38;-0.60;99.90
3300;DHT22;1662;49.310;8.134;2022-12-11T00:50:04;-0.60;99.90
3300;DHT22;1662;49.310;8.134;2022-12-11T00:52:30;-0.60;99.90
3300;DHT22;1662;49.310;8.134;2022-12-11T00:54:56;-0.60;99.90
3300;DHT22;1662;49.310;8.134;2022-12-11T00:59:16;-0.60;99.90
3300;DHT22;1662;49.310;8.134;2022-12-11T01:01:44;-0.50;99.90
3300;DHT22;1662;49.310;8.134;2022-12-11T01:04:10;-0.50;99.90
3300;DHT22;1662;49.310;8.134;2022-12-11T01:06:35;-0.60;99.90
3300;DHT22;1662;49.310;8.134;2022-12-11T01:09:01;-0.60;99.90
3300;DHT22;1662;49.310;8.134;2022-12-11T01:11:45;-0.50;99.90
3300;DHT22;1662;49.310;8.134;2022-12-11T01:14:11;-0.50;99.90
3300;DHT22;1662;49.310;8.134;2022-12-11T01:19:14;-0.60;99.90
3300;DHT22;1662;49.310;8.134;2022-12-11T01:21:40;-0.60;99.90
3300;DHT22;1662;49.310;8.134;2022-12-11T01:24:06;-0.60;99.90
3300;DHT22;1662;49.310;8.134;2022-12-11T01:26:31;-0.50;99.90
3300;DHT22;1662;49.310;8.134;2022-12-11T01:28:57;-0.50;99.90
3300;DHT22;1662;49.310;8.134;2022-12-11T01:31:22;-0.40;99.90
3300;DHT22;1662;49.310;8.134;2022-12-11T01:33:48;-0.50;99.90
3300;DHT22;1662;49.310;8.134;2022-12-11T01:38:37;-0.50;99.90
3300;DHT22;1662;49.310;8.134;2022-12-11T01:41:03;-0.50;99.90
3300;DHT22;1662;49.310;8.134;2022-12-11T01:43:29;-0.40;99.90
3300;DHT22;1662;49.310;8.134;2022-12-11T01:45:57;-0.40;99.90
3300;DHT22;1662;49.310;8.134;2022-12-11T01:48:26;-0.40;99.90
3300;DHT22;1662;49.310;8.134;2022-12-11T01:50:55;-0.40;99.90
3300;DHT22;1662;49.310;8.134;2022-12-11T01:56:34;-0.40;99.90
3300;DHT22;1662;49.310;8.134;2022-12-11T01:59:02;-0.40;99.90
3300;DHT22;1662;49.310;8.134;2022-12-11T02:01:41;-0.40;99.90
3300;DHT22;1662;49.310;8.134;2022-12-11T02:04:08;-0.40;99.90
3300;DHT22;1662;49.310;8.134;2022-12-11T02:09:05;-0.40;99.90
3300;DHT22;1662;49.310;8.134;2022-12-11T02:20:05;-0.30;99.90
3300;DHT22;1662;49.310;8.134;2022-12-11T02:33:57;-0.20;99.90
3300;DHT22;1662;49.310;8.134;2022-12-11T02:36:26;-0.20;99.90
3300;DHT22;1662;49.310;8.134;2022-12-11T02:38:56;-0.20;99.90
3300;DHT22;1662;49.310;8.134;2022-12-11T02:41:24;-0.20;99.90
3300;DHT22;1662;49.310;8.134;2022-12-11T02:43:52;-0.20;99.90
3300;DHT22;1662;49.310;8.134;2022-12-11T02:46:20;-0.20;99.90
3300;DHT22;1662;49.310;8.134;2022-12-11T02:48:47;-0.10;99.90
3300;DHT22;1662;49.310;8.134;2022-12-11T02:53:30;-0.10;99.90
3300;DHT22;1662;49.310;8.134;2022-12-11T02:56:03;-0.10;99.90
3300;DHT22;1662;49.310;8.134;2022-12-11T02:58:31;-0.20;99.90
3300;DHT22;1662;49.310;8.134;2022-12-11T03:00:58;-0.20;99.90
3300;DHT22;1662;49.310;8.134;2022-12-11T03:03:23;-0.30;99.90
3300;DHT22;1662;49.310;8.134;2022-12-11T03:05:49;-0.30;99.90
3300;DHT22;1662;49.310;8.134;2022-12-11T03:08:17;-0.30;99.90
3300;DHT22;1662;49.310;8.134;2022-12-11T03:12:13;-0.30;99.90
3300;DHT22;1662;49.310;8.134;2022-12-11T03:14:41;-0.40;99.90
3300;DHT22;1662;49.310;8.134;2022-12-11T03:17:20;-0.40;99.90
3300;DHT22;1662;49.310;8.134;2022-12-11T03:22:45;-0.40;99.90
3300;DHT22;1662;49.310;8.134;2022-12-11T03:25:17;-0.30;99.90
3300;DHT22;1662;49.310;8.134;2022-12-11T03:27:50;-0.20;99.90
3300;DHT22;1662;49.310;8.134;2022-12-11T03:32:16;-0.20;99.90
3300;DHT22;1662;49.310;8.134;2022-12-11T03:35:02;-0.20;99.90
3300;DHT22;1662;49.310;8.134;2022-12-11T03:37:31;-0.20;99.90
3300;DHT22;1662;49.310;8.134;2022-12-11T03:40:03;-0.10;99.90
3300;DHT22;1662;49.310;8.134;2022-12-11T03:42:31;-0.20;99.90
3300;DHT22;1662;49.310;8.134;2022-12-11T03:44:58;-0.20;99.90
3300;DHT22;1662;49.310;8.134;2022-12-11T03:47:26;-0.20;99.90
3300;DHT22;1662;49.310;8.134;2022-12-11T03:51:38;-0.20;99.90
3300;DHT22;1662;49.310;8.134;2022-12-11T03:54:06;-0.20;99.90
3300;DHT22;1662;49.310;8.134;2022-12-11T03:56:33;-0.20;99.90
3300;DHT22;1662;49.310;8.134;2022-12-11T03:59:00;-0.30;99.90
3300;DHT22;1662;49.310;8.134;2022-12-11T04:01:28;-0.30;99.90
3300;DHT22;1662;49.310;8.134;2022-12-11T04:03:53;-0.30;99.90
3300;DHT22;1662;49.310;8.134;2022-12-11T04:06:19;-0.40;99.90
3300;DHT22;1662;49.310;8.134;2022-12-11T04:11:02;-0.50;99.90
3300;DHT22;1662;49.310;8.134;2022-12-11T04:13:47;-0.50;99.90
3300;DHT22;1662;49.310;8.134;2022-12-11T04:16:32;-0.50;99.90
3300;DHT22;1662;49.310;8.134;2022-12-11T04:18:58;-0.50;99.90
3300;DHT22;1662;49.310;8.134;2022-12-11T04:21:42;-0.50;99.90
3300;DHT22;1662;49.310;8.134;2022-12-11T04:24:26;-0.50;99.90
3300;DHT22;1662;49.310;8.134;2022-12-11T04:26:51;-0.50;99.90
3300;DHT22;1662;49.310;8.134;2022-12-11T04:30:48;-0.50;99.90
3300;DHT22;1662;49.310;8.134;2022-12-11T04:33:14;-0.50;99.90
3300;DHT22;1662;49.310;8.134;2022-12-11T04:35:39;-0.50;99.90
3300;DHT22;1662;49.310;8.134;2022-12-11T04:38:05;-0.50;99.90
3300;DHT22;1662;49.310;8.134;2022-12-11T04:40:31;-0.60;99.90
3300;DHT22;1662;49.310;8.134;2022-12-11T04:42:56;-0.60;99.90
3300;DHT22;1662;49.310;8.134;2022-12-11T04:45:22;-0.60;99.90
3300;DHT22;1662;49.310;8.134;2022-12-11T04:50:26;-0.60;99.90
3300;DHT22;1662;49.310;8.134;2022-12-11T04:52:55;-0.60;99.90
3300;DHT22;1662;49.310;8.134;2022-12-11T04:55:21;-0.60;99.90
3300;DHT22;1662;49.310;8.134;2022-12-11T04:57:47;-0.70;99.90
3300;DHT22;1662;49.310;8.134;2022-12-11T05:00:13;-0.70;99.90
3300;DHT22;1662;49.310;8.134;2022-12-11T05:02:40;-0.70;99.90
3300;DHT22;1662;49.310;8.134;2022-12-11T05:05:07;-0.70;99.90
3300;DHT22;1662;49.310;8.134;2022-12-11T05:09:55;-0.70;99.90
3300;DHT22;1662;49.310;8.134;2022-12-11T05:12:21;-0.70;99.90
3300;DHT22;1662;49.310;8.134;2022-12-11T05:14:49;-0.70;99.90
3300;DHT22;1662;49.310;8.134;2022-12-11T05:17:15;-0.70;99.90
3300;DHT22;1662;49.310;8.134;2022-12-11T05:19:41;-0.60;99.90
3300;DHT22;1662;49.310;8.134;2022-12-11T05:22:06;-0.60;99.90
3300;DHT22;1662;49.310;8.134;2022-12-11T05:24:32;-0.60;99.90
3300;DHT22;1662;49.310;8.134;2022-12-11T05:29:29;-0.60;99.90
3300;DHT22;1662;49.310;8.134;2022-12-11T05:31:55;-0.70;99.90
3300;DHT22;1662;49.310;8.134;2022-12-11T05:34:23;-0.70;99.90
3300;DHT22;1662;49.310;8.134;2022-12-11T05:36:48;-0.60;99.90
3300;DHT22;1662;49.310;8.134;2022-12-11T05:39:16;-0.60;99.90
3300;DHT22;1662;49.310;8.134;2022-12-11T05:41:42;-0.60;99.90
3300;DHT22;1662;49.310;8.134;2022-12-11T05:44:11;-0.50;99.90
3300;DHT22;1662;49.310;8.134;2022-12-11T05:49:00;-0.50;99.90
3300;DHT22;1662;49.310;8.134;2022-12-11T05:51:29;-0.50;99.90
3300;DHT22;1662;49.310;8.134;2022-12-11T05:53:56;-0.40;99.90
3300;DHT22;1662;49.310;8.134;2022-12-11T05:56:27;-0.40;99.90
3300;DHT22;1662;49.310;8.134;2022-12-11T05:58:54;-0.30;99.90
3300;DHT22;1662;49.310;8.134;2022-12-11T06:01:34;-0.40;99.90
3300;DHT22;1662;49.310;8.134;2022-12-11T06:04:00;-0.30;99.90
3300;DHT22;1662;49.310;8.134;2022-12-11T06:06:27;-0.30;99.90
3300;DHT22;1662;49.310;8.134;2022-12-11T06:10:44;-0.30;99.90
3300;DHT22;1662;49.310;8.134;2022-12-11T06:13:10;-0.20;99.90
3300;DHT22;1662;49.310;8.134;2022-12-11T06:15:36;-0.30;99.90
3300;DHT22;1662;49.310;8.134;2022-12-11T06:18:02;-0.20;99.90
3300;DHT22;1662;49.310;8.134;2022-12-11T06:20:30;-0.20;99.90
3300;DHT22;1662;49.310;8.134;2022-12-11T06:22:56;-0.20;99.90
3300;DHT22;1662;49.310;8.134;2022-12-11T06:25:21;-0.20;99.90
3300;DHT22;1662;49.310;8.134;2022-12-11T06:30:07;-0.20;99.90
3300;DHT22;1662;49.310;8.134;2022-12-11T06:32:34;-0.20;99.90
3300;DHT22;1662;49.310;8.134;2022-12-11T06:35:00;0.40;99.90
3300;DHT22;1662;49.310;8.134;2022-12-11T06:37:25;0.30;99.90
3300;DHT22;1662;49.310;8.134;2022-12-11T06:39:56;0.30;99.90
3300;DHT22;1662;49.310;8.134;2022-12-11T06:42:21;0.10;99.90
3300;DHT22;1662;49.310;8.134;2022-12-11T06:44:47;0.00;99.90
3300;DHT22;1662;49.310;8.134;2022-12-11T06:49:20;-0.10;99.90
3300;DHT22;1662;49.310;8.134;2022-12-11T06:51:46;-0.30;99.90
3300;DHT22;1662;49.310;8.134;2022-12-11T06:54:11;-0.50;99.90
3300;DHT22;1662;49.310;8.134;2022-12-11T06:56:40;-0.50;99.90
3300;DHT22;1662;49.310;8.134;2022-12-11T06:59:05;-0.50;99.90
3300;DHT22;1662;49.310;8.134;2022-12-11T07:01:31;-0.50;99.90
3300;DHT22;1662;49.310;8.134;2022-12-11T07:03:58;-0.50;99.90
3300;DHT22;1662;49.310;8.134;2022-12-11T07:08:30;-0.50;99.90
3300;DHT22;1662;49.310;8.134;2022-12-11T07:11:05;-0.40;99.90
3300;DHT22;1662;49.310;8.134;2022-12-11T07:13:31;-0.40;99.90
3300;DHT22;1662;49.310;8.134;2022-12-11T07:16:00;-0.40;99.90
3300;DHT22;1662;49.310;8.134;2022-12-11T07:18:27;-0.40;99.90
3300;DHT22;1662;49.310;8.134;2022-12-11T07:20:52;-0.40;99.90
3300;DHT22;1662;49.310;8.134;2022-12-11T07:23:18;-0.40;99.90
3300;DHT22;1662;49.310;8.134;2022-12-11T07:26:44;-0.40;99.90
3300;DHT22;1662;49.310;8.134;2022-12-11T07:29:10;-0.30;99.90
3300;DHT22;1662;49.310;8.134;2022-12-11T07:31:36;-0.30;99.90
3300;DHT22;1662;49.310;8.134;2022-12-11T07:34:05;-0.40;99.90
3300;DHT22;1662;49.310;8.134;2022-12-11T07:36:32;-0.40;99.90
3300;DHT22;1662;49.310;8.134;2022-12-11T07:38:59;-0.30;99.90
3300;DHT22;1662;49.310;8.134;2022-12-11T07:41:24;-0.40;99.90
3300;DHT22;1662;49.310;8.134;2022-12-11T07:46:00;-0.50;99.90
3300;DHT22;1662;49.310;8.134;2022-12-11T07:48:25;-0.50;99.90
3300;DHT22;1662;49.310;8.134;2022-12-11T07:50:51;-0.50;99.90
3300;DHT22;1662;49.310;8.134;2022-12-11T07:53:19;-0.40;99.90
3300;DHT22;1662;49.310;8.134;2022-12-11T07:55:45;-0.40;99.90
3300;DHT22;1662;49.310;8.134;2022-12-11T07:58:10;-0.30;99.90
3300;DHT22;1662;49.310;8.134;2022-12-11T08:00:36;-0.30;99.90
3300;DHT22;1662;49.310;8.134;2022-12-11T08:04:35;-0.20;99.90
3300;DHT22;1662;49.310;8.134;2022-12-11T08:07:01;-0.30;99.90
3300;DHT22;1662;49.310;8.134;2022-12-11T08:09:26;-0.20;99.90
3300;DHT22;1662;49.310;8.134;2022-12-11T08:11:54;-0.20;99.90
3300;DHT22;1662;49.310;8.134;2022-12-11T08:14:20;-0.10;99.90
3300;DHT22;1662;49.310;8.134;2022-12-11T08:16:46;-0.10;99.90
3300;DHT22;1662;49.310;8.134;2022-12-11T08:19:16;0.00;99.90
3300;DHT22;1662;49.310;8.134;2022-12-11T08:23:49;0.00;99.90
3300;DHT22;1662;49.310;8.134;2022-12-11T08:26:18;0.10;99.90
3300;DHT22;1662;49.310;8.134;2022-12-11T08:28:44;0.40;99.90
3300;DHT22;1662;49.310;8.134;2022-12-11T08:31:11;1.30;99.90
3300;DHT22;1662;49.310;8.134;2022-12-11T08:33:37;1.40;99.90
3300;DHT22;1662;49.310;8.134;2022-12-11T08:36:07;0.90;99.90
3300;DHT22;1662;49.310;8.134;2022-12-11T08:41:19;0.50;99.90
3300;DHT22;1662;49.310;8.134;2022-12-11T08:43:45;0.20;99.90
3300;DHT22;1662;49.310;8.134;2022-12-11T08:46:12;0.20;99.90
3300;DHT22;1662;49.310;8.134;2022-12-11T08:48:42;0.20;99.90
3300;DHT22;1662;49.310;8.134;2022-12-11T08:51:11;0.20;99.90
3300;DHT22;1662;49.310;8.134;2022-12-11T08:53:37;0.20;99.90
3300;DHT22;1662;49.310;8.134;2022-12-11T08:56:07;0.20;99.90
3300;DHT22;1662;49.310;8.134;2022-12-11T09:00:40;0.20;99.90
3300;DHT22;1662;49.310;8.134;2022-12-11T09:03:06;0.30;99.90
3300;DHT22;1662;49.310;8.134;2022-12-11T09:05:31;0.30;99.90
3300;DHT22;1662;49.310;8.134;2022-12-11T09:07:57;0.30;99.90
3300;DHT22;1662;49.310;8.134;2022-12-11T09:10:25;0.30;99.90
3300;DHT22;1662;49.310;8.134;2022-12-11T09:12:51;0.30;99.90
3300;DHT22;1662;49.310;8.134;2022-12-11T09:15:20;0.40;99.90
3300;DHT22;1662;49.310;8.134;2022-12-11T09:19:56;0.40;99.90
3300;DHT22;1662;49.310;8.134;2022-12-11T09:22:21;0.40;99.90
3300;DHT22;1662;49.310;8.134;2022-12-11T09:24:47;0.50;99.90
3300;DHT22;1662;49.310;8.134;2022-12-11T09:27:12;0.50;99.90
3300;DHT22;1662;49.310;8.134;2022-12-11T09:29:42;0.50;99.90
3300;DHT22;1662;49.310;8.134;2022-12-11T09:32:08;0.50;99.90
3300;DHT22;1662;49.310;8.134;2022-12-11T09:34:34;0.40;99.90
3300;DHT22;1662;49.310;8.134;2022-12-11T09:38:50;0.50;99.90
3300;DHT22;1662;49.310;8.134;2022-12-11T09:46:39;0.50;99.90
3300;DHT22;1662;49.310;8.134;2022-12-11T09:49:25;0.50;99.90
3300;DHT22;1662;49.310;8.134;2022-12-11T10:00:02;0.60;99.90
3300;DHT22;1662;49.310;8.134;2022-12-11T10:03:03;0.60;99.90
3300;DHT22;1662;49.310;8.134;2022-12-11T10:16:22;0.80;99.90
3300;DHT22;1662;49.310;8.134;2022-12-11T10:18:51;0.80;99.90
3300;DHT22;1662;49.310;8.134;2022-12-11T10:21:18;0.90;99.90
3300;DHT22;1662;49.310;8.134;2022-12-11T10:23:53;0.90;99.90
3300;DHT22;1662;49.310;8.134;2022-12-11T10:26:22;0.90;99.90
3300;DHT22;1662;49.310;8.134;2022-12-11T10:28:48;1.00;99.90
3300;DHT22;1662;49.310;8.134;2022-12-11T10:35:24;1.00;99.90
3300;DHT22;1662;49.310;8.134;2022-12-11T10:37:55;1.10;99.90
3300;DHT22;1662;49.310;8.134;2022-12-11T10:40:23;1.10;99.90
3300;DHT22;1662;49.310;8.134;2022-12-11T10:42:53;1.20;99.90
3300;DHT22;1662;49.310;8.134;2022-12-11T10:45:19;1.20;99.90
3300;DHT22;1662;49.310;8.134;2022-12-11T10:47:45;1.20;99.90
3300;DHT22;1662;49.310;8.134;2022-12-11T10:50:23;1.20;99.90
3300;DHT22;1662;49.310;8.134;2022-12-11T10:53:53;1.20;99.90
3300;DHT22;1662;49.310;8.134;2022-12-11T10:56:31;1.40;99.90
3300;DHT22;1662;49.310;8.134;2022-12-11T10:58:57;1.40;99.90
3300;DHT22;1662;49.310;8.134;2022-12-11T11:01:26;1.40;99.90
3300;DHT22;1662;49.310;8.134;2022-12-11T11:06:23;1.40;99.90
3300;DHT22;1662;49.310;8.134;2022-12-11T11:08:54;1.30;99.90
3300;DHT22;1662;49.310;8.134;2022-12-11T11:13:22;1.30;99.90
3300;DHT22;1662;49.310;8.134;2022-12-11T11:15:48;1.40;99.90
3300;DHT22;1662;49.310;8.134;2022-12-11T11:18:23;1.40;99.90
3300;DHT22;1662;49.310;8.134;2022-12-11T11:20:51;1.40;99.90
3300;DHT22;1662;49.310;8.134;2022-12-11T11:23:20;1.40;99.90
3300;DHT22;1662;49.310;8.134;2022-12-11T11:25:57;1.40;99.90
3300;DHT22;1662;49.310;8.134;2022-12-11T11:33:20;1.50;99.90
3300;DHT22;1662;49.310;8.134;2022-12-11T11:35:53;1.50;99.90
3300;DHT22;1662;49.310;8.134;2022-12-11T11:38:24;1.50;99.90
3300;DHT22;1662;49.310;8.134;2022-12-11T11:41:04;1.60;99.90
3300;DHT22;1662;49.310;8.134;2022-12-11T11:44:01;1.60;99.90
3300;DHT22;1662;49.310;8.134;2022-12-11T11:46:35;1.60;99.90
3300;DHT22;1662;49.310;8.134;2022-12-11T11:51:53;1.50;99.90
3300;DHT22;1662;49.310;8.134;2022-12-11T11:56:45;1.60;99.90
3300;DHT22;1662;49.310;8.134;2022-12-11T12:01:58;1.70;99.90
3300;DHT22;1662;49.310;8.134;2022-12-11T12:04:30;1.70;99.90
3300;DHT22;1662;49.310;8.134;2022-12-11T12:20:45;1.70;99.90
3300;DHT22;1662;49.310;8.134;2022-12-11T12:23:39;1.70;99.90
3300;DHT22;1662;49.310;8.134;2022-12-11T12:30:34;1.70;99.90
3300;DHT22;1662;49.310;8.134;2022-12-11T12:35:54;1.70;99.90
3300;DHT22;1662;49.310;8.134;2022-12-11T12:41:11;3.10;99.90
3300;DHT22;1662;49.310;8.134;2022-12-11T12:46:59;2.60;99.90
3300;DHT22;1662;49.310;8.134;2022-12-11T12:49:46;2.50;99.90
3300;DHT22;1662;49.310;8.134;2022-12-11T12:54:52;2.40;99.90
3300;DHT22;1662;49.310;8.134;2022-12-11T12:57:55;2.40;99.90
3300;DHT22;1662;49.310;8.134;2022-12-11T13:00:34;2.40;99.90
3300;DHT22;1662;49.310;8.134;2022-12-11T13:06:01;2.30;99.90
3300;DHT22;1662;49.310;8.134;2022-12-11T13:08:36;2.20;99.90
3300;DHT22;1662;49.310;8.134;2022-12-11T13:11:07;2.10;99.90
3300;DHT22;1662;49.310;8.134;2022-12-11T13:13:42;2.10;99.90
3300;DHT22;1662;49.310;8.134;2022-12-11T13:18:43;1.90;99.90
3300;DHT22;1662;49.310;8.134;2022-12-11T13:21:29;1.90;99.90
3300;DHT22;1662;49.310;8.134;2022-12-11T13:25:57;1.90;99.90
3300;DHT22;1662;49.310;8.134;2022-12-11T13:33:43;1.80;99.90
3300;DHT22;1662;49.310;8.134;2022-12-11T13:38:37;1.90;99.90
3300;DHT22;1662;49.310;8.134;2022-12-11T13:41:09;1.90;99.90
3300;DHT22;1662;49.310;8.134;2022-12-11T13:48:26;1.80;99.90
3300;DHT22;1662;49.310;8.134;2022-12-11T13:50:55;1.90;99.90
3300;DHT22;1662;49.310;8.134;2022-12-11T13:53:22;1.90;99.90
3300;DHT22;1662;49.310;8.134;2022-12-11T13:56:03;1.90;99.90
3300;DHT22;1662;49.310;8.134;2022-12-11T13:58:38;1.90;99.90
3300;DHT22;1662;49.310;8.134;2022-12-11T14:05:43;1.90;99.90
3300;DHT22;1662;49.310;8.134;2022-12-11T14:08:11;1.90;99.90
3300;DHT22;1662;49.310;8.134;2022-12-11T14:10:42;1.90;99.90
3300;DHT22;1662;49.310;8.134;2022-12-11T14:15:45;1.90;99.90
3300;DHT22;1662;49.310;8.134;2022-12-11T14:18:19;2.00;99.90
3300;DHT22;1662;49.310;8.134;2022-12-11T14:20:53;2.00;99.90
3300;DHT22;1662;49.310;8.134;2022-12-11T14:26:02;2.00;99.90
3300;DHT22;1662;49.310;8.134;2022-12-11T14:28:36;1.90;99.90
3300;DHT22;1662;49.310;8.134;2022-12-11T14:31:02;1.90;99.90
3300;DHT22;1662;49.310;8.134;2022-12-11T14:33:36;1.90;99.90
3300;DHT22;1662;49.310;8.134;2022-12-11T14:36:05;1.90;99.90
3300;DHT22;1662;49.310;8.134;2022-12-11T14:38:59;2.00;99.90
3300;DHT22;1662;49.310;8.134;2022-12-11T14:41:47;1.90;99.90
3300;DHT22;1662;49.310;8.134;2022-12-11T14:44:16;1.90;99.90
3300;DHT22;1662;49.310;8.134;2022-12-11T14:47:57;1.90;99.90
3300;DHT22;1662;49.310;8.134;2022-12-11T14:50:42;1.90;99.90
3300;DHT22;1662;49.310;8.134;2022-12-11T14:53:18;1.90;99.90
3300;DHT22;1662;49.310;8.134;2022-12-11T14:55:47;1.90;99.90
3300;DHT22;1662;49.310;8.134;2022-12-11T14:58:23;1.90;99.90
3300;DHT22;1662;49.310;8.134;2022-12-11T15:07:42;1.80;99.90
3300;DHT22;1662;49.310;8.134;2022-12-11T15:13:23;1.80;99.90
3300;DHT22;1662;49.310;8.134;2022-12-11T15:15:49;1.70;99.90
3300;DHT22;1662;49.310;8.134;2022-12-11T15:18:35;1.70;99.90
3300;DHT22;1662;49.310;8.134;2022-12-11T15:21:06;1.70;99.90
3300;DHT22;1662;49.310;8.134;2022-12-11T15:27:04;1.70;99.90
3300;DHT22;1662;49.310;8.134;2022-12-11T15:39:47;1.60;99.90
3300;DHT22;1662;49.310;8.134;2022-12-11T15:44:34;1.60;99.90
3300;DHT22;1662;49.310;8.134;2022-12-11T15:47:09;1.60;99.90
3300;DHT22;1662;49.310;8.134;2022-12-11T15:49:35;1.50;99.90
3300;DHT22;1662;49.310;8.134;2022-12-11T15:52:00;1.50;99.90
3300;DHT22;1662;49.310;8.134;2022-12-11T15:54:31;1.40;99.90
3300;DHT22;1662;49.310;8.134;2022-12-11T15:56:58;1.50;99.90
3300;DHT22;1662;49.310;8.134;2022-12-11T15:59:25;1.50;99.90
3300;DHT22;1662;49.310;8.134;2022-12-11T16:04:15;1.50;99.90
3300;DHT22;1662;49.310;8.134;2022-12-11T16:06:43;1.60;99.90
3300;DHT22;1662;49.310;8.134;2022-12-11T16:09:10;1.60;99.90
3300;DHT22;1662;49.310;8.134;2022-12-11T16:11:36;1.70;99.90
3300;DHT22;1662;49.310;8.134;2022-12-11T16:14:01;1.70;99.90
3300;DHT22;1662;49.310;8.134;2022-12-11T16:16:30;1.60;99.90
3300;DHT22;1662;49.310;8.134;2022-12-11T16:18:58;1.60;99.90
3300;DHT22;1662;49.310;8.134;2022-12-11T16:23:57;1.60;99.90
3300;DHT22;1662;49.310;8.134;2022-12-11T16:26:25;1.60;99.90
3300;DHT22;1662;49.310;8.134;2022-12-11T16:28:53;1.60;99.90
3300;DHT22;1662;49.310;8.134;2022-12-11T16:31:18;1.60;99.90
3300;DHT22;1662;49.310;8.134;2022-12-11T16:33:44;1.60;99.90
3300;DHT22;1662;49.310;8.134;2022-12-11T16:36:14;1.60;99.90
3300;DHT22;1662;49.310;8.134;2022-12-11T16:38:43;1.60;99.90
3300;DHT22;1662;49.310;8.134;2022-12-11T16:43:40;1.60;99.90
3300;DHT22;1662;49.310;8.134;2022-12-11T16:46:06;1.60;99.90
3300;DHT22;1662;49.310;8.134;2022-12-11T16:48:32;1.60;99.90
3300;DHT22;1662;49.310;8.134;2022-12-11T16:50:57;1.60;99.90
3300;DHT22;1662;49.310;8.134;2022-12-11T16:53:23;1.60;99.90
3300;DHT22;1662;49.310;8.134;2022-12-11T16:55:49;1.70;99.90
3300;DHT22;1662;49.310;8.134;2022-12-11T16:58:16;1.70;99.90
3300;DHT22;1662;49.310;8.134;2022-12-11T17:03:21;1.70;99.90
3300;DHT22;1662;49.310;8.134;2022-12-11T17:05:47;1.70;99.90
3300;DHT22;1662;49.310;8.134;2022-12-11T17:08:12;1.60;99.90
3300;DHT22;1662;49.310;8.134;2022-12-11T17:10:40;1.50;99.90
3300;DHT22;1662;49.310;8.134;2022-12-11T17:13:06;1.40;99.90
3300;DHT22;1662;49.310;8.134;2022-12-11T17:15:32;1.30;99.90
3300;DHT22;1662;49.310;8.134;2022-12-11T17:17:57;1.10;99.90
3300;DHT22;1662;49.310;8.134;2022-12-11T17:22:02;1.00;99.90
3300;DHT22;1662;49.310;8.134;2022-12-11T17:24:28;0.90;99.90
3300;DHT22;1662;49.310;8.134;2022-12-11T17:26:54;0.80;99.90
3300;DHT22;1662;49.310;8.134;2022-12-11T17:29:22;0.80;99.90
3300;DHT22;1662;49.310;8.134;2022-12-11T17:31:48;0.80;99.90
3300;DHT22;1662;49.310;8.134;2022-12-11T17:34:13;0.80;99.90
3300;DHT22;1662;49.310;8.134;2022-12-11T17:39:37;0.70;99.90
3300;DHT22;1662;49.310;8.134;2022-12-11T17:42:03;0.80;99.90
3300;DHT22;1662;49.310;8.134;2022-12-11T17:44:28;0.80;99.90
3300;DHT22;1662;49.310;8.134;2022-12-11T17:46:56;0.80;99.90
3300;DHT22;1662;49.310;8.134;2022-12-11T17:49:22;0.80;99.90
3300;DHT22;1662;49.310;8.134;2022-12-11T17:51:50;0.80;99.90
3300;DHT22;1662;49.310;8.134;2022-12-11T17:54:18;0.90;99.90
3300;DHT22;1662;49.310;8.134;2022-12-11T17:59:20;0.90;99.90
3300;DHT22;1662;49.310;8.134;2022-12-11T18:01:46;0.90;99.90
3300;DHT22;1662;49.310;8.134;2022-12-11T18:04:12;0.90;99.90
3300;DHT22;1662;49.310;8.134;2022-12-11T18:06:37;0.80;99.90
3300;DHT22;1662;49.310;8.134;2022-12-11T18:09:03;0.80;99.90
3300;DHT22;1662;49.310;8.134;2022-12-11T18:11:31;0.80;99.90
3300;DHT22;1662;49.310;8.134;2022-12-11T18:13:59;0.70;99.90
3300;DHT22;1662;49.310;8.134;2022-12-11T18:18:31;0.70;99.90
3300;DHT22;1662;49.310;8.134;2022-12-11T18:20:57;0.70;99.90
3300;DHT22;1662;49.310;8.134;2022-12-11T18:23:23;0.60;99.90
3300;DHT22;1662;49.310;8.134;2022-12-11T18:25:49;0.60;99.90
3300;DHT22;1662;49.310;8.134;2022-12-11T18:28:14;0.60;99.90
3300;DHT22;1662;49.310;8.134;2022-12-11T18:30:40;0.60;99.90
3300;DHT22;1662;49.310;8.134;2022-12-11T18:33:05;0.60;99.90
3300;DHT22;1662;49.310;8.134;2022-12-11T18:37:46;0.60;99.90
3300;DHT22;1662;49.310;8.134;2022-12-11T18:40:12;0.70;99.90
3300;DHT22;1662;49.310;8.134;2022-12-11T18:42:38;0.80;99.90
3300;DHT22;1662;49.310;8.134;2022-12-11T18:45:04;0.80;99.90
3300;DHT22;1662;49.310;8.134;2022-12-11T18:47:29;0.80;99.90
3300;DHT22;1662;49.310;8.134;2022-12-11T18:49:55;0.80;99.90
3300;DHT22;1662;49.310;8.134;2022-12-11T18:52:20;0.80;99.90
3300;DHT22;1662;49.310;8.134;2022-12-11T18:56:14;0.90;99.90
3300;DHT22;1662;49.310;8.134;2022-12-11T18:58:41;0.90;99.90
3300;DHT22;1662;49.310;8.134;2022-12-11T19:01:09;0.90;99.90
3300;DHT22;1662;49.310;8.134;2022-12-11T19:03:38;1.00;99.90
3300;DHT22;1662;49.310;8.134;2022-12-11T19:06:15;1.00;99.90
3300;DHT22;1662;49.310;8.134;2022-12-11T19:08:42;1.10;99.90
3300;DHT22;1662;49.310;8.134;2022-12-11T19:11:08;1.10;99.90
3300;DHT22;1662;49.310;8.134;2022-12-11T19:14:53;1.10;99.90
3300;DHT22;1662;49.310;8.134;2022-12-11T19:17:19;1.10;99.90
3300;DHT22;1662;49.310;8.134;2022-12-11T19:19:45;1.10;99.90
3300;DHT22;1662;49.310;8.134;2022-12-11T19:22:11;1.10;99.90
3300;DHT22;1662;49.310;8.134;2022-12-11T19:24:40;1.10;99.90
3300;DHT22;1662;49.310;8.134;2022-12-11T19:27:05;1.10;99.90
3300;DHT22;1662;49.310;8.134;2022-12-11T19:29:31;1.10;99.90
3300;DHT22;1662;49.310;8.134;2022-12-11T19:33:22;1.10;99.90
3300;DHT22;1662;49.310;8.134;2022-12-11T19:35:47;1.10;99.90
3300;DHT22;1662;49.310;8.134;2022-12-11T19:38:13;1.20;99.90
3300;DHT22;1662;49.310;8.134;2022-12-11T19:40:40;1.20;99.90
3300;DHT22;1662;49.310;8.134;2022-12-11T19:43:06;1.20;99.90
3300;DHT22;1662;49.310;8.134;2022-12-11T19:45:32;1.20;99.90
3300;DHT22;1662;49.310;8.134;2022-12-11T19:47:57;1.20;99.90
3300;DHT22;1662;49.310;8.134;2022-12-11T19:52:20;1.20;99.90
3300;DHT22;1662;49.310;8.134;2022-12-11T19:54:48;1.20;99.90
3300;DHT22;1662;49.310;8.134;2022-12-11T19:57:13;1.20;99.90
3300;DHT22;1662;49.310;8.134;2022-12-11T19:59:40;1.20;99.90
3300;DHT22;1662;49.310;8.134;2022-12-11T20:02:05;1.20;99.90
3300;DHT22;1662;49.310;8.134;2022-12-11T20:04:31;1.20;99.90
3300;DHT22;1662;49.310;8.134;2022-12-11T20:06:56;1.20;99.90
3300;DHT22;1662;49.310;8.134;2022-12-11T20:12:02;1.30;99.90
3300;DHT22;1662;49.310;8.134;2022-12-11T20:14:30;1.20;99.90
3300;DHT22;1662;49.310;8.134;2022-12-11T20:16:56;1.20;99.90
3300;DHT22;1662;49.310;8.134;2022-12-11T20:19:22;1.10;99.90
3300;DHT22;1662;49.310;8.134;2022-12-11T20:21:48;1.10;99.90
3300;DHT22;1662;49.310;8.134;2022-12-11T20:24:14;1.20;99.90
3300;DHT22;1662;49.310;8.134;2022-12-11T20:26:39;1.20;99.90
3300;DHT22;1662;49.310;8.134;2022-12-11T20:31:44;1.20;99.90